Time;durP1;ratioP1;P1;durP2;ratioP2;P2;SDS_P1;SDS_P2;PMS_P1;PMS_P2;Temp;Humidity;BMP_temperature;BMP_pressure;BME280_temperature;BME280_humidity;BME280_pressure;Samples;Min_cycle;Max_cycle;Signal;HPM_P1;HPM_P2
2024/03/31 00:01:03;;;;;;;2.15;1.65;;;16.00;57.90;;;;;;5052002;28;20175;-63
2024/03/31 00:03:29;;;;;;;1.38;1.27;;;16.00;57.90;;;;;;5050949;28;20187;-63
2024/03/31 00:05:55;;;;;;;1.23;1.13;;;16.00;57.90;;;;;;5051466;28;20622;-64
2024/03/31 00:08:21;;;;;;;1.20;1.10;;;16.00;57.90;;;;;;5051638;28;20202;-64
2024/03/31 00:10:46;;;;;;;1.38;1.30;;;16.00;57.90;;;;;;5051361;28;20613;-64
2024/03/31 00:13:12;;;;;;;1.55;1.45;;;16.00;58.00;;;;;;5051598;28;20266;-64
2024/03/31 00:15:37;;;;;;;1.30;1.20;;;16.00;58.00;;;;;;5051159;28;20297;-64
2024/03/31 00:18:03;;;;;;;1.05;1.05;;;15.90;57.90;;;;;;5051760;28;20309;-63
2024/03/31 00:20:28;;;;;;;1.85;1.42;;;15.90;57.90;;;;;;5051793;28;20179;-64
2024/03/31 00:22:54;;;;;;;1.33;1.23;;;16.00;57.90;;;;;;5050992;28;21032;-63
2024/03/31 00:25:19;;;;;;;1.58;1.15;;;15.90;57.90;;;;;;5051491;28;20265;-64
2024/03/31 00:27:48;;;;;;;1.55;1.30;;;15.90;57.90;;;;;;5051744;28;20270;-63
2024/03/31 00:30:13;;;;;;;1.42;1.33;;;15.90;57.90;;;;;;5050546;28;20647;-63
2024/03/31 00:32:39;;;;;;;1.70;1.60;;;15.90;57.90;;;;;;5051609;28;20287;-64
2024/03/31 00:35:05;;;;;;;1.80;1.70;;;15.90;57.90;;;;;;5051720;28;20163;-64
2024/03/31 00:37:30;;;;;;;1.60;1.50;;;15.90;58.00;;;;;;5050695;28;20244;-64
2024/03/31 00:39:56;;;;;;;2.03;1.83;;;15.90;58.00;;;;;;5051555;28;20179;-64
2024/03/31 00:42:21;;;;;;;1.88;1.77;;;15.90;58.00;;;;;;5051189;28;20219;-64
2024/03/31 00:44:47;;;;;;;1.98;1.80;;;15.90;58.00;;;;;;5051067;28;20262;-63
2024/03/31 00:47:12;;;;;;;1.75;1.65;;;15.90;58.10;;;;;;5051057;28;20321;-63
2024/03/31 00:49:38;;;;;;;2.42;1.90;;;15.90;58.10;;;;;;5051808;28;20175;-63
2024/03/31 00:52:04;;;;;;;2.10;1.90;;;15.90;58.20;;;;;;5050927;28;20179;-64
2024/03/31 00:54:32;;;;;;;2.40;2.20;;;15.90;58.20;;;;;;5051392;28;20175;-64
2024/03/31 00:56:58;;;;;;;2.53;2.33;;;15.90;58.20;;;;;;5051489;28;20257;-64
2024/03/31 00:59:23;;;;;;;2.00;1.90;;;15.90;58.20;;;;;;5050409;28;20167;-63
2024/03/31 01:01:49;;;;;;;2.78;2.55;;;15.90;58.30;;;;;;5051455;28;20270;-63
2024/03/31 01:04:14;;;;;;;2.60;2.40;;;15.90;58.30;;;;;;5051264;28;20262;-64
2024/03/31 01:06:40;;;;;;;2.60;2.38;;;15.90;58.30;;;;;;5050869;28;20266;-64
2024/03/31 01:09:05;;;;;;;2.50;2.30;;;15.90;58.30;;;;;;5051464;28;20262;-65
2024/03/31 01:11:31;;;;;;;2.72;2.53;;;15.90;58.40;;;;;;5051109;28;20265;-64
2024/03/31 01:13:57;;;;;;;2.60;2.40;;;15.90;58.40;;;;;;5050588;28;20246;-64
2024/03/31 01:16:22;;;;;;;2.30;2.10;;;15.90;58.40;;;;;;5049671;28;20263;-64
2024/03/31 01:18:48;;;;;;;2.20;2.10;;;15.80;58.30;;;;;;5053819;28;20254;-65
2024/03/31 01:21:13;;;;;;;2.95;2.75;;;15.90;58.40;;;;;;5054309;28;20170;-64
2024/03/31 01:24:00;;;;;;;2.28;2.17;;;15.80;58.30;;;;;;5054037;28;20254;-64
2024/03/31 01:26:27;;;;;;;2.17;1.98;;;15.90;58.40;;;;;;5054071;28;20270;-64
2024/03/31 01:28:53;;;;;;;2.25;2.05;;;15.80;58.30;;;;;;5054839;28;20213;-64
2024/03/31 01:31:18;;;;;;;2.40;2.22;;;15.80;58.40;;;;;;5054806;28;20207;-63
2024/03/31 01:33:44;;;;;;;2.55;2.35;;;15.80;58.40;;;;;;5054111;28;20704;-64
2024/03/31 01:36:09;;;;;;;2.22;2.10;;;15.80;58.40;;;;;;5054386;28;20289;-64
2024/03/31 01:38:35;;;;;;;2.38;2.17;;;15.80;58.40;;;;;;5054840;28;20175;-65
2024/03/31 01:41:00;;;;;;;2.80;2.60;;;15.80;58.40;;;;;;5053856;28;20705;-63
2024/03/31 01:43:26;;;;;;;2.35;2.25;;;15.80;58.40;;;;;;5054383;28;20633;-63
2024/03/31 01:45:52;;;;;;;2.08;1.95;;;15.80;58.40;;;;;;5054887;28;20179;-63
2024/03/31 01:48:17;;;;;;;2.42;2.22;;;15.80;58.40;;;;;;5053894;28;20171;-63
2024/03/31 01:50:43;;;;;;;2.00;1.90;;;15.80;58.40;;;;;;5054550;28;20713;-63
2024/03/31 01:53:08;;;;;;;2.40;2.20;;;15.80;58.40;;;;;;5054229;28;20189;-64
2024/03/31 01:55:34;;;;;;;2.70;2.50;;;15.80;58.40;;;;;;5053795;28;20313;-63
2024/03/31 01:57:59;;;;;;;2.25;2.15;;;15.80;58.40;;;;;;5054301;28;20270;-64
2024/03/31 02:00:25;;;;;;;2.05;1.95;;;15.80;58.50;;;;;;5054114;28;20309;-63
2024/03/31 02:02:50;;;;;;;2.17;2.08;;;15.80;58.50;;;;;;5053567;28;20266;-64
2024/03/31 02:05:16;;;;;;;2.88;2.22;;;15.80;58.50;;;;;;5054086;28;20175;-63
2024/03/31 02:07:41;;;;;;;2.40;2.20;;;15.80;58.50;;;;;;5054340;28;20171;-63
2024/03/31 02:10:07;;;;;;;2.30;2.10;;;15.70;58.40;;;;;;5053330;28;20174;-63
2024/03/31 02:12:35;;;;;;;2.42;2.22;;;15.90;58.50;;;;;;5053949;28;20175;-63
2024/03/31 02:15:01;;;;;;;2.55;2.35;;;15.70;58.40;;;;;;5054269;28;20210;-63
2024/03/31 02:17:26;;;;;;;2.65;2.45;;;15.70;58.50;;;;;;5052741;28;20214;-63
2024/03/31 02:19:52;;;;;;;2.00;1.90;;;15.80;58.50;;;;;;5054036;28;20171;-63
2024/03/31 02:22:20;;;;;;;2.00;1.90;;;15.70;58.40;;;;;;5053163;28;20185;-63
2024/03/31 02:24:46;;;;;;;2.20;2.00;;;15.70;58.50;;;;;;5053938;28;20181;-62
2024/03/31 02:27:11;;;;;;;2.45;2.25;;;15.70;58.60;;;;;;5053443;28;20171;-63
2024/03/31 02:29:38;;;;;;;2.65;2.28;;;15.70;58.50;;;;;;5052291;28;20183;-63
2024/03/31 02:32:04;;;;;;;2.42;2.25;;;15.70;58.40;;;;;;5053922;28;20190;-63
2024/03/31 02:34:30;;;;;;;2.15;2.00;;;15.70;58.50;;;;;;5053569;28;20171;-64
2024/03/31 02:36:55;;;;;;;2.20;2.03;;;15.70;58.50;;;;;;5052835;28;20582;-64
2024/03/31 02:39:21;;;;;;;2.35;2.15;;;15.70;58.50;;;;;;5053461;28;20210;-63
2024/03/31 02:41:47;;;;;;;2.42;2.22;;;15.70;58.50;;;;;;5053417;28;20263;-63
2024/03/31 02:44:12;;;;;;;2.20;2.00;;;15.70;58.50;;;;;;5052286;28;20203;-63
2024/03/31 02:46:38;;;;;;;2.22;2.10;;;15.70;58.50;;;;;;5053734;28;20183;-63
2024/03/31 02:49:03;;;;;;;2.25;2.15;;;15.70;58.60;;;;;;5053479;28;20171;-63
2024/03/31 02:51:29;;;;;;;2.22;2.10;;;15.70;58.60;;;;;;5052603;28;20178;-64
2024/03/31 02:53:54;;;;;;;2.42;2.28;;;15.70;58.60;;;;;;5053322;28;20190;-64
2024/03/31 02:56:20;;;;;;;2.60;2.40;;;15.70;58.50;;;;;;5052961;28;20218;-64
2024/03/31 02:58:45;;;;;;;2.28;2.10;;;15.70;58.60;;;;;;5052636;28;20206;-64
2024/03/31 03:01:15;;;;;;;2.40;2.20;;;15.70;58.60;;;;;;5053025;28;20179;-63
2024/03/31 03:03:40;;;;;;;2.30;2.10;;;15.70;58.60;;;;;;5053281;28;20171;-64
2024/03/31 03:06:06;;;;;;;2.08;1.98;;;15.70;58.70;;;;;;5052443;28;20194;-64
2024/03/31 03:08:31;;;;;;;2.38;2.17;;;15.70;58.70;;;;;;5052831;28;20171;-65
2024/03/31 03:10:57;;;;;;;1.90;1.80;;;15.70;58.60;;;;;;5052857;28;20239;-63
2024/03/31 03:13:23;;;;;;;2.13;2.03;;;15.70;58.60;;;;;;5052119;28;20313;-63
2024/03/31 03:15:48;;;;;;;2.60;2.40;;;15.60;58.60;;;;;;5053085;28;20263;-63
2024/03/31 03:18:14;;;;;;;2.20;2.10;;;15.60;58.70;;;;;;5052452;28;20167;-64
2024/03/31 03:20:40;;;;;;;2.25;2.08;;;15.60;58.70;;;;;;5052180;28;20265;-63
2024/03/31 03:23:06;;;;;;;2.20;2.10;;;15.60;58.70;;;;;;5052848;28;20258;-63
2024/03/31 03:25:31;;;;;;;2.10;1.92;;;15.60;58.60;;;;;;5051900;28;20622;-62
2024/03/31 03:27:57;;;;;;;2.33;2.10;;;15.60;58.70;;;;;;5052617;28;20176;-63
2024/03/31 03:30:22;;;;;;;2.10;2.00;;;15.60;58.60;;;;;;5052647;28;20171;-64
2024/03/31 03:32:50;;;;;;;2.28;2.08;;;15.60;58.60;;;;;;5052084;28;20697;-63
2024/03/31 03:35:16;;;;;;;1.80;1.70;;;15.60;58.60;;;;;;5052364;28;20205;-63
2024/03/31 03:37:41;;;;;;;2.78;2.30;;;15.60;58.70;;;;;;5052701;28;20171;-64
2024/03/31 03:40:07;;;;;;;2.03;1.83;;;15.60;58.70;;;;;;5051159;28;20167;-63
2024/03/31 03:42:32;;;;;;;1.92;1.83;;;15.60;58.70;;;;;;5052537;28;20246;-64
2024/03/31 03:44:58;;;;;;;2.65;2.30;;;15.60;58.60;;;;;;5052453;28;20167;-63
2024/03/31 03:47:23;;;;;;;2.20;2.10;;;15.60;58.70;;;;;;5051432;28;20175;-63
2024/03/31 03:49:51;;;;;;;2.20;2.10;;;15.60;58.70;;;;;;5052264;28;20589;-63
2024/03/31 03:52:17;;;;;;;2.10;2.00;;;15.60;58.70;;;;;;5051924;28;20646;-63
2024/03/31 03:54:43;;;;;;;2.13;2.00;;;15.60;58.70;;;;;;5051441;28;20187;-63
2024/03/31 03:57:08;;;;;;;2.33;1.92;;;15.60;58.70;;;;;;5052034;28;20280;-64
2024/03/31 03:59:34;;;;;;;2.15;2.05;;;15.50;58.70;;;;;;5052415;28;20221;-64
2024/03/31 04:01:59;;;;;;;1.90;1.80;;;15.60;58.80;;;;;;5051423;28;20577;-63
2024/03/31 04:04:25;;;;;;;2.40;2.30;;;15.50;58.80;;;;;;5051660;28;20635;-64
2024/03/31 04:06:50;;;;;;;1.90;1.80;;;15.50;58.80;;;;;;5051978;28;20175;-64
2024/03/31 04:09:16;;;;;;;1.80;1.65;;;15.50;58.80;;;;;;5050965;28;20531;-64
2024/03/31 04:11:41;;;;;;;1.90;1.80;;;15.50;58.80;;;;;;5051890;28;20177;-64
2024/03/31 04:14:07;;;;;;;2.00;1.90;;;15.50;58.80;;;;;;5051883;28;20171;-64
2024/03/31 04:16:32;;;;;;;1.77;1.67;;;15.60;58.80;;;;;;5051212;28;20215;-64
2024/03/31 04:18:58;;;;;;;1.83;1.73;;;15.60;58.90;;;;;;5051876;28;20175;-63
2024/03/31 04:21:24;;;;;;;2.20;2.10;;;15.60;58.90;;;;;;5051646;28;20179;-63
2024/03/31 04:23:49;;;;;;;2.00;1.88;;;15.50;58.90;;;;;;5051134;28;20625;-63
2024/03/31 04:26:15;;;;;;;1.85;1.75;;;15.50;58.90;;;;;;5051338;28;20698;-64
2024/03/31 04:28:43;;;;;;;2.67;2.03;;;15.50;58.90;;;;;;5051785;28;20183;-63
2024/03/31 04:31:09;;;;;;;1.88;1.77;;;15.50;58.90;;;;;;5051353;28;20309;-63
2024/03/31 04:33:34;;;;;;;1.90;1.80;;;15.50;59.00;;;;;;5051818;28;20641;-65
2024/03/31 04:36:00;;;;;;;2.28;2.10;;;15.50;58.90;;;;;;5050880;28;20686;-65
2024/03/31 04:38:26;;;;;;;1.85;1.75;;;15.50;59.00;;;;;;5051333;28;20653;-65
2024/03/31 04:40:57;;;;;;;2.00;1.90;;;15.50;59.00;;;;;;5051325;28;20857;-64
2024/03/31 04:43:23;;;;;;;1.98;1.88;;;15.50;59.00;;;;;;5050856;28;20182;-63
2024/03/31 04:46:18;;;;;;;2.00;1.90;;;15.50;59.00;;;;;;5051489;28;20638;-63
2024/03/31 04:48:43;;;;;;;2.30;2.10;;;15.50;59.00;;;;;;5038470;28;20215;-63
2024/03/31 04:51:09;;;;;;;2.45;2.25;;;15.50;59.00;;;;;;5050532;28;20719;-63
2024/03/31 04:53:37;;;;;;;2.22;2.08;;;15.50;59.00;;;;;;5054006;28;20206;-64
2024/03/31 04:56:03;;;;;;;2.10;1.98;;;15.50;59.00;;;;;;5055358;28;20568;-64
2024/03/31 04:58:29;;;;;;;2.10;1.90;;;15.50;59.00;;;;;;5054673;28;20179;-65
2024/03/31 05:00:54;;;;;;;2.40;2.20;;;15.50;59.10;;;;;;5055491;28;20174;-64
2024/03/31 05:03:24;;;;;;;2.13;2.03;;;15.50;59.10;;;;;;5055085;28;20640;-63
2024/03/31 05:05:50;;;;;;;1.88;1.77;;;15.50;59.10;;;;;;5054646;28;20175;-64
2024/03/31 05:08:16;;;;;;;2.28;2.08;;;15.50;59.10;;;;;;5054974;28;20184;-65
2024/03/31 05:10:41;;;;;;;2.35;2.15;;;15.40;59.00;;;;;;5055442;28;20229;-64
2024/03/31 05:13:07;;;;;;;2.13;1.92;;;15.40;59.00;;;;;;5053065;28;20179;-64
2024/03/31 05:15:32;;;;;;;2.20;2.00;;;15.50;59.10;;;;;;5054855;28;20206;-63
2024/03/31 05:17:58;;;;;;;2.35;2.20;;;15.40;59.00;;;;;;5054780;28;20265;-64
2024/03/31 05:20:23;;;;;;;2.30;2.15;;;15.40;59.10;;;;;;5054600;28;20262;-64
2024/03/31 05:22:49;;;;;;;1.80;1.70;;;15.40;59.10;;;;;;5055340;28;20266;-64
2024/03/31 05:25:15;;;;;;;2.17;2.08;;;15.40;59.10;;;;;;5054136;28;20182;-63
2024/03/31 05:27:41;;;;;;;1.90;1.80;;;15.40;59.10;;;;;;5054978;28;20245;-63
2024/03/31 05:30:07;;;;;;;2.00;1.90;;;15.40;59.10;;;;;;5054966;28;20171;-64
2024/03/31 05:32:32;;;;;;;2.10;2.00;;;15.40;59.10;;;;;;5053940;28;20205;-64
2024/03/31 05:34:58;;;;;;;1.98;1.88;;;15.40;59.10;;;;;;5054964;28;20541;-64
2024/03/31 05:37:23;;;;;;;2.25;2.05;;;15.40;59.10;;;;;;5054680;28;20678;-64
2024/03/31 05:39:49;;;;;;;2.40;2.10;;;15.40;59.10;;;;;;5054208;28;20529;-63
2024/03/31 05:42:14;;;;;;;3.15;2.40;;;15.40;59.10;;;;;;5054163;28;20271;-64
2024/03/31 05:44:40;;;;;;;2.47;2.28;;;15.40;59.10;;;;;;5054728;28;20713;-63
2024/03/31 05:47:05;;;;;;;2.20;2.00;;;15.40;59.10;;;;;;5053692;28;20728;-63
2024/03/31 05:49:31;;;;;;;2.13;2.03;;;15.40;59.20;;;;;;5054587;28;20178;-63
2024/03/31 05:51:56;;;;;;;2.05;1.95;;;15.40;59.20;;;;;;5054503;28;20171;-63
2024/03/31 05:54:22;;;;;;;2.00;1.90;;;15.40;59.20;;;;;;5053600;28;20207;-64
2024/03/31 05:56:47;;;;;;;2.17;1.98;;;15.50;59.20;;;;;;5054547;28;20297;-64
2024/03/31 05:59:13;;;;;;;1.67;1.58;;;15.60;59.20;;;;;;5054128;28;20262;-64
2024/03/31 06:01:38;;;;;;;1.88;1.77;;;15.60;59.10;;;;;;5053703;28;20285;-64
2024/03/31 06:04:04;;;;;;;2.00;1.80;;;15.70;59.20;;;;;;5054093;28;20167;-63
2024/03/31 06:06:29;;;;;;;2.00;1.77;;;15.90;59.00;;;;;;5054256;28;20197;-65
2024/03/31 06:08:55;;;;;;;2.13;2.00;;;16.10;59.00;;;;;;5053636;28;20178;-64
2024/03/31 06:11:20;;;;;;;1.75;1.65;;;16.20;58.60;;;;;;5054058;28;20963;-64
2024/03/31 06:13:46;;;;;;;2.10;2.00;;;16.40;58.40;;;;;;5054215;28;20637;-64
2024/03/31 06:16:13;;;;;;;1.63;1.52;;;16.50;58.10;;;;;;5052971;28;20219;-63
2024/03/31 06:18:38;;;;;;;1.92;1.83;;;16.70;58.00;;;;;;5054046;28;20214;-64
2024/03/31 06:21:07;;;;;;;2.13;1.92;;;16.80;57.70;;;;;;5053978;28;20616;-63
2024/03/31 06:23:35;;;;;;;1.80;1.70;;;16.80;57.60;;;;;;5053394;28;20175;-64
2024/03/31 06:26:00;;;;;;;1.58;1.48;;;17.00;57.50;;;;;;5053935;28;20179;-63
2024/03/31 06:28:26;;;;;;;1.67;1.58;;;17.10;57.30;;;;;;5052847;28;20175;-64
2024/03/31 06:30:51;;;;;;;1.70;1.60;;;17.10;57.10;;;;;;5053668;28;20190;-63
2024/03/31 06:33:17;;;;;;;3.72;1.83;;;17.10;57.10;;;;;;5053698;28;20221;-64
2024/03/31 06:35:42;;;;;;;1.73;1.63;;;17.10;57.10;;;;;;5053213;28;20245;-65
2024/03/31 06:38:08;;;;;;;1.98;1.40;;;17.10;57.10;;;;;;5053523;28;20175;-65
2024/03/31 06:40:34;;;;;;;1.90;1.80;;;17.10;57.10;;;;;;5053512;28;20230;-64
2024/03/31 06:43:00;;;;;;;1.75;1.65;;;17.20;57.00;;;;;;5052980;28;20189;-64
2024/03/31 06:45:27;;;;;;;1.83;1.73;;;17.20;56.90;;;;;;5053216;28;20175;-63
2024/03/31 06:47:53;;;;;;;1.50;1.40;;;17.20;56.90;;;;;;5053399;28;20692;-64
2024/03/31 06:50:21;;;;;;;1.75;1.65;;;17.20;57.00;;;;;;5052401;28;20760;-65
2024/03/31 06:52:47;;;;;;;2.05;1.95;;;17.20;57.00;;;;;;5053395;28;20183;-64
2024/03/31 06:55:13;;;;;;;2.08;1.63;;;17.30;57.00;;;;;;5053205;28;20167;-64
2024/03/31 06:57:39;;;;;;;1.60;1.50;;;17.30;57.00;;;;;;5052548;28;20242;-64
2024/03/31 07:00:05;;;;;;;1.98;1.88;;;17.30;57.00;;;;;;5053172;28;20213;-64
2024/03/31 07:02:31;;;;;;;1.92;1.83;;;17.30;56.90;;;;;;5053161;28;20197;-64
2024/03/31 07:04:56;;;;;;;1.70;1.60;;;17.30;56.90;;;;;;5052602;28;20246;-64
2024/03/31 07:07:22;;;;;;;1.88;1.77;;;17.40;57.00;;;;;;5052741;28;20689;-64
2024/03/31 07:09:48;;;;;;;1.80;1.70;;;17.40;56.90;;;;;;5053201;28;20266;-64
2024/03/31 07:12:13;;;;;;;2.10;2.00;;;17.40;56.90;;;;;;5052429;28;20194;-65
2024/03/31 07:14:39;;;;;;;1.98;1.83;;;17.40;56.90;;;;;;5052991;28;20559;-64
2024/03/31 07:17:05;;;;;;;1.60;1.50;;;17.40;56.90;;;;;;5052149;28;20673;-63
2024/03/31 07:19:30;;;;;;;1.90;1.80;;;17.40;56.80;;;;;;5052074;28;20579;-63
2024/03/31 07:21:56;;;;;;;2.00;1.90;;;17.40;56.70;;;;;;5052871;28;20641;-63
2024/03/31 07:24:21;;;;;;;2.15;1.95;;;17.50;56.80;;;;;;5052556;28;20175;-63
2024/03/31 07:26:50;;;;;;;2.00;1.90;;;17.40;56.80;;;;;;5052098;28;20225;-63
2024/03/31 07:29:15;;;;;;;1.83;1.73;;;17.50;56.80;;;;;;5052317;28;20692;-63
2024/03/31 07:31:41;;;;;;;1.98;1.75;;;17.50;56.60;;;;;;5051910;28;20187;-64
2024/03/31 07:34:06;;;;;;;1.65;1.55;;;17.50;56.60;;;;;;5052709;28;20220;-63
2024/03/31 07:36:32;;;;;;;1.95;1.85;;;17.60;56.60;;;;;;5052336;28;20215;-65
2024/03/31 07:38:58;;;;;;;1.73;1.63;;;17.60;56.60;;;;;;5051789;28;20171;-64
2024/03/31 07:41:23;;;;;;;1.48;1.38;;;17.60;56.60;;;;;;5052090;28;20260;-63
2024/03/31 07:43:49;;;;;;;1.92;1.80;;;17.60;56.50;;;;;;5052386;28;20175;-63
2024/03/31 07:46:14;;;;;;;1.77;1.67;;;17.60;56.60;;;;;;5051560;28;20186;-63
2024/03/31 07:48:40;;;;;;;1.80;1.70;;;17.60;56.60;;;;;;5052491;28;20221;-63
2024/03/31 07:51:05;;;;;;;2.42;2.00;;;17.50;56.70;;;;;;5052329;28;20171;-63
2024/03/31 07:53:31;;;;;;;2.30;2.10;;;17.40;57.40;;;;;;5051425;28;20276;-65
2024/03/31 07:56:00;;;;;;;2.20;2.03;;;17.40;56.90;;;;;;5052135;28;20615;-63
2024/03/31 07:58:25;;;;;;;2.20;2.00;;;17.40;57.00;;;;;;5051824;28;20179;-64
2024/03/31 08:00:52;;;;;;;2.35;2.15;;;17.30;57.00;;;;;;5051621;28;20186;-63
2024/03/31 08:03:17;;;;;;;2.15;1.95;;;17.40;57.10;;;;;;5051982;28;20179;-63
2024/03/31 08:05:43;;;;;;;1.90;1.80;;;17.30;57.20;;;;;;5052252;28;20675;-64
2024/03/31 08:08:10;;;;;;;2.17;2.00;;;17.20;57.40;;;;;;5051037;28;20213;-64
2024/03/31 08:10:35;;;;;;;2.42;2.22;;;17.20;57.40;;;;;;5052037;28;20175;-64
2024/03/31 08:13:01;;;;;;;1.70;1.60;;;17.10;57.60;;;;;;5051869;28;20181;-64
2024/03/31 08:15:27;;;;;;;2.05;1.95;;;17.10;57.60;;;;;;5051031;28;20258;-63
2024/03/31 08:17:53;;;;;;;2.17;1.98;;;17.10;57.60;;;;;;5051974;28;20265;-64
2024/03/31 08:20:18;;;;;;;2.38;2.17;;;17.00;57.60;;;;;;5051755;28;20701;-63
2024/03/31 08:22:44;;;;;;;2.38;1.98;;;17.00;57.80;;;;;;5051286;28;20198;-63
2024/03/31 08:25:09;;;;;;;2.40;2.20;;;16.90;57.80;;;;;;5051581;28;20633;-63
2024/03/31 08:27:35;;;;;;;2.33;1.98;;;16.90;57.90;;;;;;5050857;28;20637;-63
2024/03/31 08:30:00;;;;;;;1.95;1.83;;;16.90;58.00;;;;;;5050980;28;20183;-64
2024/03/31 08:32:26;;;;;;;2.53;2.33;;;16.90;58.10;;;;;;5051664;28;20190;-65
2024/03/31 08:34:51;;;;;;;2.83;2.13;;;16.90;58.20;;;;;;5051736;28;20262;-64
2024/03/31 08:37:17;;;;;;;1.98;1.88;;;16.90;58.30;;;;;;5050742;28;20237;-64
2024/03/31 08:39:43;;;;;;;2.45;2.25;;;16.90;58.30;;;;;;5051682;28;20175;-64
2024/03/31 08:42:22;;;;;;;2.00;1.90;;;16.90;58.40;;;;;;5050349;28;20319;-64
2024/03/31 08:44:51;;;;;;;2.50;2.30;;;16.90;58.40;;;;;;5050657;28;20201;-63
2024/03/31 08:47:31;;;;;;;2.30;2.10;;;16.90;58.90;;;;;;5051401;28;20236;-63
2024/03/31 08:49:56;;;;;;;2.28;2.10;;;17.00;58.30;;;;;;5050847;28;20183;-63
2024/03/31 08:52:22;;;;;;;2.50;2.30;;;16.90;58.30;;;;;;5051259;28;20204;-64
2024/03/31 08:54:49;;;;;;;2.38;2.17;;;17.00;58.30;;;;;;5051489;28;20638;-64
2024/03/31 08:57:14;;;;;;;2.25;2.05;;;17.00;58.30;;;;;;5049134;28;20587;-64
2024/03/31 08:59:40;;;;;;;2.08;1.98;;;17.00;58.10;;;;;;5051477;28;20178;-63
2024/03/31 09:02:06;;;;;;;1.88;1.77;;;17.10;58.10;;;;;;5050338;28;20258;-64
2024/03/31 09:04:31;;;;;;;2.15;2.05;;;17.10;58.10;;;;;;5049286;28;20178;-64
2024/03/31 09:06:57;;;;;;;2.53;2.33;;;17.10;58.10;;;;;;5050253;28;20167;-64
2024/03/31 09:09:23;;;;;;;2.28;2.08;;;17.10;58.20;;;;;;5050979;28;20174;-64
2024/03/31 09:11:48;;;;;;;2.13;1.98;;;17.10;58.30;;;;;;5050923;28;20198;-64
2024/03/31 09:14:14;;;;;;;2.53;2.33;;;17.00;58.40;;;;;;5049848;28;20171;-64
2024/03/31 09:16:44;;;;;;;2.47;2.28;;;17.10;58.40;;;;;;5051342;28;21010;-64
2024/03/31 09:19:09;;;;;;;2.47;2.25;;;17.10;58.40;;;;;;5049092;28;20194;-64
2024/03/31 09:21:47;;;;;;;2.35;2.15;;;17.10;58.50;;;;;;5051314;28;20248;-63
2024/03/31 09:24:13;;;;;;;2.72;2.50;;;17.10;58.40;;;;;;5050410;28;20526;-63
2024/03/31 09:26:40;;;;;;;2.40;2.20;;;17.10;58.40;;;;;;5051418;28;20176;-63
2024/03/31 09:29:05;;;;;;;3.58;2.20;;;17.20;58.40;;;;;;5051060;28;20205;-63
2024/03/31 09:31:31;;;;;;;2.40;2.20;;;17.20;58.30;;;;;;5049071;28;20289;-63
2024/03/31 09:33:56;;;;;;;2.38;2.17;;;17.20;58.30;;;;;;5051010;28;20268;-64
2024/03/31 09:36:22;;;;;;;2.25;2.10;;;17.20;58.40;;;;;;5049427;28;20203;-64
2024/03/31 09:38:47;;;;;;;3.45;2.42;;;17.20;58.40;;;;;;5051571;28;20214;-63
2024/03/31 09:41:13;;;;;;;3.30;2.22;;;17.20;58.40;;;;;;5054353;28;20226;-63
2024/03/31 09:43:38;;;;;;;2.83;2.50;;;17.20;58.40;;;;;;5053544;28;20171;-63
2024/03/31 09:46:06;;;;;;;2.92;2.65;;;17.20;58.40;;;;;;5052992;28;20171;-63
2024/03/31 09:48:31;;;;;;;2.35;2.10;;;17.20;58.50;;;;;;5053381;28;20527;-63
2024/03/31 09:51:05;;;;;;;2.85;2.20;;;17.30;58.50;;;;;;5053433;28;20179;-63
2024/03/31 09:53:31;;;;;;;3.30;2.20;;;17.30;58.40;;;;;;5052803;28;20205;-64
2024/03/31 09:56:02;;;;;;;2.60;2.30;;;17.30;58.30;;;;;;5053253;28;20668;-63
2024/03/31 09:58:31;;;;;;;2.72;2.22;;;17.40;58.30;;;;;;5054458;28;20659;-64
2024/03/31 10:00:57;;;;;;;2.25;2.05;;;17.40;58.30;;;;;;5052620;28;20593;-63
2024/03/31 10:03:28;;;;;;;2.53;2.33;;;17.40;58.30;;;;;;5054195;28;20633;-63
2024/03/31 10:05:54;;;;;;;2.80;2.10;;;17.40;58.30;;;;;;5053402;28;20285;-63
2024/03/31 10:08:20;;;;;;;3.63;2.60;;;17.40;58.30;;;;;;5052173;28;20637;-64
2024/03/31 10:10:45;;;;;;;3.35;2.70;;;17.40;58.30;;;;;;5053338;28;20186;-63
2024/03/31 10:13:11;;;;;;;2.80;2.60;;;17.40;58.40;;;;;;5053971;28;20406;-63
2024/03/31 10:15:36;;;;;;;2.95;2.65;;;17.50;58.80;;;;;;5052340;28;20167;-63
2024/03/31 10:18:05;;;;;;;3.55;2.63;;;17.50;58.40;;;;;;5052952;28;20183;-63
2024/03/31 10:20:31;;;;;;;2.75;2.55;;;17.50;58.30;;;;;;5053319;28;20183;-64
2024/03/31 10:22:59;;;;;;;2.80;2.50;;;17.60;58.30;;;;;;5054099;28;20183;-63
2024/03/31 10:25:27;;;;;;;2.63;2.42;;;17.60;58.20;;;;;;5052655;28;20194;-63
2024/03/31 10:27:53;;;;;;;2.88;2.58;;;17.50;58.20;;;;;;5053181;28;20183;-63
2024/03/31 10:30:19;;;;;;;2.95;2.60;;;17.60;58.30;;;;;;5052521;28;20186;-63
2024/03/31 10:32:45;;;;;;;3.20;2.28;;;17.60;58.30;;;;;;5053812;28;20171;-63
2024/03/31 10:35:10;;;;;;;2.63;2.22;;;17.60;58.30;;;;;;5051685;28;20179;-63
2024/03/31 10:37:36;;;;;;;3.40;2.88;;;17.60;58.30;;;;;;5053749;28;20218;-64
2024/03/31 10:40:02;;;;;;;3.22;2.88;;;17.70;58.40;;;;;;5052437;28;20262;-63
2024/03/31 10:42:28;;;;;;;4.00;2.80;;;17.70;58.30;;;;;;5052776;28;20190;-64
2024/03/31 10:44:53;;;;;;;3.25;3.05;;;17.70;58.40;;;;;;5052239;28;20253;-63
2024/03/31 10:47:20;;;;;;;3.30;2.83;;;17.70;58.30;;;;;;5053159;28;20175;-63
2024/03/31 10:49:46;;;;;;;2.55;2.35;;;17.70;58.30;;;;;;5052580;28;20183;-62
2024/03/31 10:52:14;;;;;;;3.25;2.58;;;17.70;58.40;;;;;;5052843;28;20183;-64
2024/03/31 10:54:40;;;;;;;3.45;2.58;;;17.60;58.40;;;;;;5053450;28;20627;-64
2024/03/31 10:57:13;;;;;;;3.22;2.50;;;17.50;58.50;;;;;;5052653;28;20242;-64
2024/03/31 10:59:39;;;;;;;3.15;2.88;;;17.50;58.50;;;;;;5053359;28;20230;-63
2024/03/31 11:02:14;;;;;;;2.97;2.67;;;17.50;58.70;;;;;;5053384;28;20498;-64
2024/03/31 11:04:40;;;;;;;2.95;2.67;;;17.60;58.60;;;;;;5052506;28;20653;-64
2024/03/31 11:07:06;;;;;;;3.15;2.85;;;17.70;58.50;;;;;;5053207;28;20179;-64
2024/03/31 11:09:32;;;;;;;3.20;2.60;;;17.70;58.40;;;;;;5052793;28;20643;-65
2024/03/31 11:11:58;;;;;;;3.20;2.72;;;17.70;58.40;;;;;;5051151;28;20179;-64
2024/03/31 11:14:24;;;;;;;5.00;2.90;;;17.70;58.40;;;;;;5051450;28;20179;-64
2024/03/31 11:16:50;;;;;;;2.60;2.40;;;17.70;58.30;;;;;;5051183;28;20214;-64
2024/03/31 11:19:15;;;;;;;3.28;2.63;;;17.80;58.30;;;;;;5051395;28;20519;-63
2024/03/31 11:21:41;;;;;;;3.17;2.88;;;17.80;58.30;;;;;;5052964;28;20179;-64
2024/03/31 11:24:06;;;;;;;3.40;2.33;;;17.70;58.50;;;;;;5050762;28;20167;-64
2024/03/31 11:26:33;;;;;;;2.97;2.60;;;17.80;58.40;;;;;;5051276;28;20175;-64
2024/03/31 11:28:59;;;;;;;4.00;2.78;;;17.70;58.50;;;;;;5051381;28;20236;-63
2024/03/31 11:31:24;;;;;;;3.42;2.75;;;17.60;58.60;;;;;;5050706;28;20171;-63
2024/03/31 11:33:50;;;;;;;3.15;2.65;;;17.60;58.70;;;;;;5051478;28;20254;-64
2024/03/31 11:36:16;;;;;;;3.53;2.47;;;17.70;58.70;;;;;;5052225;28;20213;-64
2024/03/31 11:38:42;;;;;;;2.85;2.40;;;17.80;58.60;;;;;;5051765;28;20408;-63
2024/03/31 11:41:07;;;;;;;2.75;2.55;;;17.80;58.50;;;;;;5052126;28;20230;-64
2024/03/31 11:43:33;;;;;;;2.78;2.40;;;17.90;58.50;;;;;;5052285;28;20175;-64
2024/03/31 11:45:59;;;;;;;4.15;2.35;;;17.90;58.40;;;;;;5050628;28;20178;-63
2024/03/31 11:48:26;;;;;;;4.25;2.60;;;17.90;58.30;;;;;;5052185;28;20179;-63
2024/03/31 11:50:52;;;;;;;3.90;2.65;;;17.90;58.30;;;;;;5051159;28;20189;-63
2024/03/31 11:53:18;;;;;;;4.25;2.90;;;18.00;58.20;;;;;;5051253;28;20179;-64
2024/03/31 11:55:45;;;;;;;3.95;2.70;;;18.00;58.20;;;;;;5052307;28;20286;-64
2024/03/31 11:58:10;;;;;;;3.72;2.88;;;18.00;58.20;;;;;;5051719;28;20266;-64
2024/03/31 12:00:36;;;;;;;4.22;2.72;;;18.00;58.20;;;;;;5051746;28;20255;-64
2024/03/31 12:03:07;;;;;;;4.85;2.90;;;18.00;58.30;;;;;;5052169;28;20191;-64
2024/03/31 12:05:34;;;;;;;3.58;2.78;;;17.90;58.50;;;;;;5052113;28;20176;-65
2024/03/31 12:07:59;;;;;;;4.80;2.80;;;17.80;58.70;;;;;;5050192;28;20197;-65
2024/03/31 12:10:25;;;;;;;4.05;2.63;;;17.70;58.80;;;;;;5050435;28;20536;-65
2024/03/31 12:12:50;;;;;;;3.47;2.90;;;17.70;58.80;;;;;;5051008;28;20171;-63
2024/03/31 12:15:16;;;;;;;3.38;2.53;;;17.70;58.80;;;;;;5051148;28;20172;-63
2024/03/31 12:17:42;;;;;;;4.35;3.03;;;17.70;58.80;;;;;;5052063;28;20214;-64
2024/03/31 12:20:08;;;;;;;3.10;2.83;;;17.70;58.80;;;;;;5051046;28;20628;-63
2024/03/31 12:22:37;;;;;;;6.25;2.63;;;17.70;58.90;;;;;;5051936;28;20179;-63
2024/03/31 12:25:03;;;;;;;4.13;2.70;;;17.70;58.90;;;;;;5051689;28;20175;-63
2024/03/31 12:27:29;;;;;;;5.13;3.05;;;17.60;59.00;;;;;;5049488;28;20555;-64
2024/03/31 12:29:54;;;;;;;4.47;2.88;;;17.60;59.00;;;;;;5050703;28;20179;-63
2024/03/31 12:32:21;;;;;;;4.85;3.03;;;17.50;59.60;;;;;;5051537;28;20182;-64
2024/03/31 12:34:47;;;;;;;3.25;2.55;;;17.60;59.10;;;;;;5049955;28;20244;-64
2024/03/31 12:37:12;;;;;;;3.92;2.70;;;17.60;59.10;;;;;;5051163;28;20229;-63
2024/03/31 12:39:38;;;;;;;4.25;2.95;;;17.60;59.10;;;;;;5051713;28;20179;-64
2024/03/31 12:42:04;;;;;;;3.50;2.40;;;17.60;59.10;;;;;;5049397;28;20226;-64